Terminal Aerodrome Forecast
Issued by NWS Jacksonville, FL

Home | Current Version | Previous Version | Text Only | Print | Product List | Glossary On
Versions: 1 2 3 4 5 6 7 8 9 10 11 12 13 14 15 16 17 18
000
FTUS42 KJAX 041856 AAA
TAFSSI
TAF AMD
KSSI 041856Z 0419/0518 16010KT P6SM VCTS SCT050CB BKN250
      TEMPO 0419/0421 VRB15G25KT 3SM TSRA BKN030CB
     FM050100 17008KT P6SM VCSH SCT050 BKN100
     FM050300 18007KT P6SM BKN100
     FM051300 25006KT P6SM SCT030 BKN250=

USA.gov is the U.S. government's official web portal to all federal, state and local government web resources and services.